Flight Track Log - Related Links

Times and Time Zones

All times are in EST time to prevent confusion due to time zone crossing. See the USC191 flight status page for this flight to view local times or setup timezone preferences in your user account.

Time Position Orientation Groundspeed Altitude Reporting Facility
EST Latitude Longitude Course Direction KTS MPH feet Rate Location/Type
Wed 01:10:33 AM 33.0333 -96.8000 40° Northeast 148 170 2,300  Level Dallas / Fort Worth TRACON
Wed 01:11:03 AM 33.0500 -96.7833 40° Northeast 146 168 2,500 -77 Climbing Dallas / Fort Worth TRACON
Wed 01:11:51 AM 33.0167 -96.8000 203° Southwest 168 193 2,200 667 Descending Dallas / Fort Worth TRACON
Wed 01:13:09 AM 33.0500 -96.7500 51° Northeast 133 153 3,900 1,157 Climbing Dallas / Fort Worth TRACON
Wed 01:15:08 AM 33.1017 -96.6933 43° Northeast 140 161 6,000 1,039 Climbing Fort Worth Center
Wed 01:16:08 AM 33.1325 -96.6653 37° Northeast 139 160 7,000 550 Climbing Fort Worth Center
Wed 01:17:08 AM 33.1706 -96.6367 32° Northeast 160 184 7,100 50 Climbing Fort Worth Center
Wed 01:18:08 AM 33.2072 -96.5961 43° Northeast 177 204 7,100  Level Fort Worth Center
Wed 01:19:09 AM 33.2472 -96.5581 39° Northeast 183 211 7,100  Level Fort Worth Center
Wed 01:20:09 AM 33.2864 -96.5192 40° Northeast 182 209 7,100  Level Fort Worth Center
Wed 01:21:09 AM 33.3256 -96.4803 40° Northeast 183 211 7,100  Level Fort Worth Center
Wed 01:22:09 AM 33.3642 -96.4411 40° Northeast 183 211 7,100  Level Fort Worth Center
Wed 01:23:09 AM 33.4022 -96.4017 41° Northeast 182 209 7,100  Level Fort Worth Center
Wed 01:24:09 AM 33.4425 -96.3622 39° Northeast 185 213 7,100  Level Fort Worth Center
Wed 01:25:10 AM 33.4828 -96.3225 39° Northeast 187 215 7,100  Level Fort Worth Center
Wed 01:26:10 AM 33.5228 -96.2817 40° Northeast 188 216 7,100  Level Fort Worth Center
Wed 01:27:10 AM 33.5631 -96.2417 40° Northeast 188 216 7,100  Level Fort Worth Center
Wed 01:28:10 AM 33.6031 -96.2014 40° Northeast 187 215 7,100  Level Fort Worth Center
Wed 01:29:10 AM 33.6442 -96.1606 40° Northeast 193 222 7,100  Level Fort Worth Center
Wed 01:30:10 AM 33.6878 -96.1167 40° Northeast 191 220 7,100  Level Fort Worth Center
Wed 01:31:11 AM 33.7278 -96.0753 41° Northeast 191 220 7,100  Level Fort Worth Center
Wed 01:32:11 AM 33.7678 -96.0350 40° Northeast 188 216 7,100  Level Fort Worth Center
Wed 01:33:11 AM 33.8083 -95.9953 39° Northeast 187 215 7,100  Level Fort Worth Center
Wed 01:34:11 AM 33.8453 -95.9586 39° Northeast 187 215 7,100  Level Fort Worth Center
Wed 01:35:11 AM 33.8856 -95.9172 40° Northeast 190 219 7,100  Level Fort Worth Center
Wed 01:36:11 AM 33.9283 -95.8761 39° Northeast 195 224 7,100  Level Fort Worth Center
Wed 01:37:12 AM 33.9669 -95.8358 41° Northeast 187 215 7,100  Level Fort Worth Center
Wed 01:38:12 AM 34.0069 -95.7958 40° Northeast 186 214 7,100  Level Fort Worth Center
Wed 01:39:12 AM 34.0475 -95.7544 40° Northeast 190 219 7,100  Level Fort Worth Center
Wed 01:40:12 AM 34.0889 -95.7114 41° Northeast 189 217 7,100  Level Fort Worth Center
Wed 01:41:12 AM 34.1261 -95.6731 40° Northeast 180 207 7,100 50 Level Fort Worth Center
Wed 01:42:12 AM 34.1614 -95.6356 41° Northeast 175 201 7,200 400 Climbing Fort Worth Center
Wed 01:43:12 AM 34.1958 -95.5986 42° Northeast 170 196 7,900 744 Climbing Fort Worth Center
Wed 01:44:13 AM 34.2292 -95.5686 37° Northeast 161 185 8,700 545 Climbing Fort Worth Center
Wed 01:45:13 AM 34.2578 -95.5439 36° Northeast 151 174 9,000 150 Climbing Fort Worth Center
Wed 01:46:13 AM 34.2903 -95.5111 40° Northeast 149 171 9,000  Level Fort Worth Center
Wed 01:47:13 AM 34.3286 -95.4667 44° Northeast 172 198 9,000  Level Fort Worth Center
Wed 01:48:13 AM 34.3675 -95.4278 40° Northeast 181 208 9,000  Level Fort Worth Center
Wed 01:49:13 AM 34.4047 -95.3886 41° Northeast 178 205 9,000  Level Fort Worth Center
Wed 01:50:13 AM 34.4431 -95.3489 41° Northeast 179 206 9,000  Level Fort Worth Center
Wed 01:51:13 AM 34.4817 -95.3083 41° Northeast 181 208 9,000  Level Fort Worth Center
Wed 01:52:14 AM 34.5192 -95.2708 39° Northeast 177 204 9,000  Level Fort Worth Center
Wed 01:53:14 AM 34.5553 -95.2322 41° Northeast 175 201 9,000  Level Fort Worth Center
Wed 01:54:14 AM 34.5925 -95.1933 41° Northeast 175 201 9,000  Level Fort Worth Center
Wed 01:55:14 AM 34.6342 -95.1506 40° Northeast 173 199 9,000  Level Fort Worth Center
Wed 01:56:14 AM 34.6731 -95.1103 40° Northeast 173 199 9,000  Level Fort Worth Center
Wed 01:57:14 AM 34.7083 -95.0725 41° Northeast 176 203 9,000  Level Fort Worth Center
Wed 01:58:14 AM 34.7478 -95.0328 40° Northeast 175 201 9,000  Level Fort Worth Center
Wed 01:59:15 AM 34.7833 -94.9944 42° Northeast 175 201 9,000  Level Fort Worth Center
Wed 02:00:15 AM 34.8208 -94.9569 39° Northeast 179 206 9,000  Level Fort Worth Center
Wed 02:01:15 AM 34.8600 -94.9150 41° Northeast 178 205 9,000  Level Fort Worth Center
Wed 02:02:15 AM 34.8958 -94.8783 40° Northeast 176 203 9,000  Level Fort Worth Center
Wed 02:03:15 AM 34.9347 -94.8367 41° Northeast 176 203 9,000  Level Fort Worth Center
Wed 02:04:15 AM 34.9700 -94.8003 40° Northeast 172 198 9,000  Level Fort Worth Center
Wed 02:05:15 AM 35.0072 -94.7611 41° Northeast 169 194 9,000  Level Fort Worth Center
Wed 02:06:15 AM 35.0411 -94.7256 41° Northeast 167 192 9,000 50 Level Fort Worth Center
Wed 02:07:16 AM 35.0753 -94.6894 41° Northeast 168 193 9,100 50 Climbing Fort Worth Center
Wed 02:08:16 AM 35.1106 -94.6511 42° Northeast 163 188 9,100 49 Level Fort Worth Center
Wed 02:09:18 AM 35.1431 -94.6183 40° Northeast 163 188 9,200 49 Climbing Memphis Center
Wed 02:10:18 AM 35.1775 -94.5817 41° Northeast 163 188 9,200  Level Memphis Center
Wed 02:11:18 AM 35.2122 -94.5433 42° Northeast 166 191 9,200  Level Memphis Center
Wed 02:12:19 AM 35.2481 -94.5061 40° Northeast 168 193 9,200  Level Memphis Center
Wed 02:13:19 AM 35.2844 -94.4692 40° Northeast 170 196 9,200  Level Memphis Center
Wed 02:14:19 AM 35.3192 -94.4308 42° Northeast 169 194 9,200  Level Memphis Center
Wed 02:15:19 AM 35.3564 -94.3919 40° Northeast 173 199 9,200  Level Memphis Center
Wed 02:16:19 AM 35.3889 -94.3572 41° Northeast 170 196 9,200  Level Memphis Center
Wed 02:17:19 AM 35.4283 -94.3142 42° Northeast 174 200 9,200  Level Memphis Center
Wed 02:18:19 AM 35.4661 -94.2750 40° Northeast 176 203 9,200  Level Memphis Center
Wed 02:19:20 AM 35.5025 -94.2358 41° Northeast 175 201 9,200  Level Memphis Center
Wed 02:20:20 AM 35.5386 -94.1961 42° Northeast 175 201 9,200  Level Memphis Center
Wed 02:21:20 AM 35.5764 -94.1561 41° Northeast 177 204 9,200  Level Memphis Center
Wed 02:22:20 AM 35.6136 -94.1164 41° Northeast 178 205 9,200  Level Memphis Center
Wed 02:23:20 AM 35.6494 -94.0789 40° Northeast 177 204 9,200  Level Memphis Center
Wed 02:24:20 AM 35.6869 -94.0378 42° Northeast 179 206 9,200  Level Memphis Center
Wed 02:25:20 AM 35.7258 -93.9961 41° Northeast 178 205 9,200  Level Memphis Center
Wed 02:26:21 AM 35.7631 -93.9553 42° Northeast 179 206 9,200  Level Memphis Center
Wed 02:27:21 AM 35.8003 -93.9156 41° Northeast 178 205 9,200  Level Memphis Center
Wed 02:28:21 AM 35.8381 -93.8753 41° Northeast 178 205 9,200  Level Memphis Center
Wed 02:29:21 AM 35.8758 -93.8342 41° Northeast 181 208 9,200  Level Memphis Center
Wed 02:30:21 AM 35.9133 -93.7936 41° Northeast 179 206 9,200  Level Memphis Center
Wed 02:31:21 AM 35.9508 -93.7525 42° Northeast 180 207 9,200  Level Memphis Center
Wed 02:32:21 AM 35.9889 -93.7103 42° Northeast 182 209 9,200  Level Memphis Center
Wed 02:33:22 AM 36.0269 -93.6694 41° Northeast 182 209 9,200  Level Memphis Center
Wed 02:34:22 AM 36.0642 -93.6281 42° Northeast 181 208 9,200  Level Memphis Center
Wed 02:35:22 AM 36.1025 -93.5869 41° Northeast 181 208 9,200  Level Memphis Center
Wed 02:36:22 AM 36.1408 -93.5456 41° Northeast 184 212 9,200  Level Memphis Center
Wed 02:37:22 AM 36.1789 -93.5031 42° Northeast 184 212 9,200  Level Memphis Center
Wed 02:38:22 AM 36.2172 -93.4617 41° Northeast 184 212 9,200  Level Memphis Center
Wed 02:39:23 AM 36.2556 -93.4194 42° Northeast 184 212 9,200  Level Memphis Center
Wed 02:40:23 AM 36.2933 -93.3775 42° Northeast 183 211 9,200  Level Memphis Center
Wed 02:41:23 AM 36.3322 -93.3350 41° Northeast 184 212 9,200  Level Memphis Center
Wed 02:42:33 AM 36.3778 -93.2839 42° Northeast 186 214 9,200  Level Kansas City Center
Wed 02:43:33 AM 36.4169 -93.2428 40° Northeast 185 213 9,200  Level Kansas City Center
Wed 02:44:33 AM 36.4553 -93.1994 42° Northeast 185 213 9,200  Level Kansas City Center
Wed 02:45:33 AM 36.4939 -93.1572 41° Northeast 185 213 9,200  Level Kansas City Center
Wed 02:46:33 AM 36.5325 -93.1153 41° Northeast 184 212 9,200  Level Kansas City Center
Wed 02:47:34 AM 36.5711 -93.0700 43° Northeast 187 215 9,200  Level Kansas City Center
Wed 02:48:34 AM 36.6081 -93.0289 42° Northeast 186 214 9,200  Level Kansas City Center
Wed 02:49:34 AM 36.6475 -92.9875 40° Northeast 184 212 9,200  Level Kansas City Center
Wed 02:50:34 AM 36.6858 -92.9450 42° Northeast 184 212 9,200  Level Kansas City Center
Wed 02:51:34 AM 36.7253 -92.9006 42° Northeast 186 214 9,200  Level Kansas City Center
Wed 02:52:35 AM 36.7642 -92.8567 42° Northeast 188 216 9,200  Level Kansas City Center
Wed 02:53:35 AM 36.8036 -92.8114 43° Northeast 189 217 9,200  Level Kansas City Center
Wed 02:54:35 AM 36.8422 -92.7681 42° Northeast 189 217 9,200  Level Kansas City Center
Wed 02:55:35 AM 36.8814 -92.7233 42° Northeast 189 217 9,200  Level Kansas City Center
Wed 02:56:35 AM 36.9206 -92.6814 41° Northeast 187 215 9,200  Level Kansas City Center
Wed 02:57:36 AM 36.9597 -92.6425 38° Northeast 183 211 9,200  Level Kansas City Center
Wed 02:58:36 AM 36.9972 -92.5950 45° Northeast 186 214 9,200  Level Kansas City Center
Wed 02:59:38 AM 37.0353 -92.5500 43° Northeast 187 215 9,200  Level Kansas City Center
Wed 03:00:38 AM 37.0744 -92.5067 41° Northeast 187 215 9,200  Level Kansas City Center
Wed 03:01:39 AM 37.1142 -92.4628 41° Northeast 188 216 9,200  Level Kansas City Center
Wed 03:02:39 AM 37.1531 -92.4192 42° Northeast 188 216 9,200  Level Kansas City Center
Wed 03:03:39 AM 37.1908 -92.3747 43° Northeast 187 215 9,200  Level Kansas City Center
Wed 03:04:39 AM 37.2294 -92.3303 42° Northeast 187 215 9,200  Level Kansas City Center
Wed 03:05:39 AM 37.2686 -92.2872 41° Northeast 187 215 9,200  Level Kansas City Center
Wed 03:06:40 AM 37.3078 -92.2428 42° Northeast 188 216 9,200  Level Kansas City Center
Wed 03:07:40 AM 37.3456 -92.1972 44° Northeast 188 216 9,200  Level Kansas City Center
Wed 03:08:40 AM 37.3869 -92.1519 41° Northeast 189 217 9,200  Level Kansas City Center
Wed 03:09:40 AM 37.4256 -92.1064 43° Northeast 190 219 9,200 50 Level Kansas City Center
Wed 03:10:41 AM 37.4644 -92.0628 42° Northeast 188 216 9,300 50 Climbing Kansas City Center
Wed 03:11:41 AM 37.5031 -92.0175 43° Northeast 191 220 9,300  Level Kansas City Center
Wed 03:12:41 AM 37.5422 -91.9719 43° Northeast 189 217 9,300 350 Level Kansas City Center
Wed 03:13:41 AM 37.5808 -91.9281 42° Northeast 188 216 10,000  Climbing Kansas City Center
Wed 03:14:42 AM 37.6203 -91.8836 42° Northeast 189 217 9,300 -347 Descending Kansas City Center
Wed 03:15:42 AM 37.6594 -91.8383 42° Northeast 190 219 9,300  Level Kansas City Center
Wed 03:16:42 AM 37.6989 -91.7925 43° Northeast 191 220 9,300  Level Kansas City Center
Wed 03:17:42 AM 37.7381 -91.7461 43° Northeast 192 221 9,300  Level Kansas City Center
Wed 03:18:42 AM 37.7775 -91.7008 42° Northeast 192 221 9,300  Level Kansas City Center
Wed 03:19:43 AM 37.8169 -91.6544 43° Northeast 192 221 9,300  Level Kansas City Center
Wed 03:20:43 AM 37.8572 -91.6086 42° Northeast 193 222 9,300  Level Kansas City Center
Wed 03:21:43 AM 37.8961 -91.5611 44° Northeast 194 223 9,300 -50 Level Kansas City Center
Wed 03:22:43 AM 37.9364 -91.5156 42° Northeast 194 223 9,200 -50 Descending Kansas City Center
Wed 03:23:44 AM 37.9767 -91.4694 42° Northeast 193 222 9,200  Level Kansas City Center
Wed 03:24:44 AM 38.0161 -91.4233 43° Northeast 194 223 9,200 50 Level Kansas City Center
Wed 03:25:44 AM 38.0558 -91.3744 44° Northeast 196 226 9,300 50 Climbing Kansas City Center
Wed 03:26:44 AM 38.0956 -91.3281 43° Northeast 194 223 9,300  Level Kansas City Center
Wed 03:27:45 AM 38.1364 -91.2825 41° Northeast 194 223 9,300  Level Kansas City Center
Wed 03:28:45 AM 38.1731 -91.2381 44° Northeast 192 221 9,300  Level Kansas City Center
Wed 03:29:45 AM 38.2111 -91.1925 43° Northeast 190 219 9,300  Level Kansas City Center
Wed 03:30:45 AM 38.2519 -91.1456 42° Northeast 195 224 9,300  Level Kansas City Center
Wed 03:31:46 AM 38.2906 -91.0992 43° Northeast 192 221 9,300  Level Kansas City Center
Wed 03:32:46 AM 38.3275 -91.0514 45° Northeast 191 220 9,300 -400 Level Kansas City Center
Wed 03:33:46 AM 38.3703 -91.0036 41° Northeast 199 229 8,500 -950 Descending Kansas City Center
Wed 03:34:46 AM 38.4167 -90.9506 42° Northeast 215 247 7,400 -1,190 Descending Kansas City Center
Wed 03:35:47 AM 38.4633 -90.9003 40° Northeast 220 253 6,100 -1,438 Descending Kansas City Center
Wed 03:36:47 AM 38.5122 -90.8492 39° Northeast 225 259 4,500 -1,450 Descending Kansas City Center
Wed 03:37:47 AM 38.5628 -90.8044 35° Northeast 222 255 3,200 -1,100 Descending Kansas City Center
Wed 03:38:47 AM 38.6131 -90.7664 31° Northeast 215 247 2,300 -744 Descending Kansas City Center
Wed 03:39:48 AM 38.6472 -90.7267 42° Northeast 188 216 1,700 -645 Descending Kansas City Center
Wed 03:40:48 AM 38.6533 -90.6847 79° East 144 166 1,000 -550 Descending Kansas City Center
Wed 03:41:48 AM 38.6597 -90.6486 77° East 119 137 600 -400 Descending Kansas City Center
Wed 03:43:00 AM 38.6500 -90.6500 38° Northeast  Level FlightAware Approximate
Wed 03:50:00 AM 38.6621 -90.6521 38° Northeast  Level Estimated

Login

Don't have an account? Register now (free) for customized features, flight alerts, and more!